Time,TemperatureF,DewpointF,PressureIn,WindDirection,WindDirectionDegrees,WindSpeedMPH,WindSpeedGustMPH,Humidity,HourlyPrecipIn,Conditions,Clouds,dailyrainin,SoftwareType,DateUTC
2013-03-26 00:02:00,-5.0,-9.0,-100.00,WNW,290,2.0,4.0,83,0.00,,,-99.99,,2013-03-26 06:02:00,
2013-03-26 00:12:00,-5.0,-9.0,-100.00,WNW,295,2.0,3.0,83,0.00,,,-99.99,,2013-03-26 06:12:00,
2013-03-26 00:22:00,-5.0,-9.0,-100.00,WNW,295,1.0,4.0,84,0.00,,,-99.99,,2013-03-26 06:22:00,
2013-03-26 00:32:00,-6.0,-9.0,-100.00,WNW,295,1.0,3.0,84,0.00,,,-99.99,,2013-03-26 06:32:00,
2013-03-26 00:42:00,-5.0,-9.0,-100.00,WNW,300,1.0,3.0,84,0.00,,,-99.99,,2013-03-26 06:42:00,
2013-03-26 00:52:00,-5.0,-8.0,-100.00,WNW,300,1.0,1.0,85,0.00,,,-99.99,,2013-03-26 06:52:00,
2013-03-26 01:02:00,-4.0,-7.0,-100.00,NW,305,1.0,2.0,86,0.00,,,-99.99,,2013-03-26 07:02:00,
2013-03-26 01:12:00,-3.0,-6.0,-100.00,NW,305,0.0,1.0,86,0.00,,,-99.99,,2013-03-26 07:12:00,
2013-03-26 01:22:00,-3.0,-7.0,-100.00,NW,305,0.0,1.0,86,0.00,,,-99.99,,2013-03-26 07:22:00,
2013-03-26 01:33:00,-3.0,-6.0,-100.00,NW,310,0.0,1.0,87,0.00,,,-99.99,,2013-03-26 07:33:00,
2013-03-26 01:42:00,-4.0,-7.0,-100.00,NW,310,0.0,1.0,87,0.00,,,-99.99,,2013-03-26 07:42:00,
2013-03-26 01:52:00,-3.0,-6.0,-100.00,NW,310,0.0,1.0,87,0.00,,,-99.99,,2013-03-26 07:52:00,
2013-03-26 02:02:00,-3.0,-6.0,-100.00,NW,315,0.0,1.0,88,0.00,,,-99.99,,2013-03-26 08:02:00,
2013-03-26 02:12:00,-4.0,-6.0,-100.00,NW,315,0.0,2.0,88,0.00,,,-99.99,,2013-03-26 08:12:00,
2013-03-26 02:22:00,-3.0,-5.0,-100.00,NW,315,0.0,1.0,89,0.00,,,-99.99,,2013-03-26 08:22:00,
2013-03-26 02:32:00,-3.0,-5.0,-100.00,NW,320,1.0,2.0,89,0.00,,,-99.99,,2013-03-26 08:32:00,
2013-03-26 02:42:00,-2.0,-4.0,-100.00,NW,320,0.0,1.0,89,0.00,,,-99.99,,2013-03-26 08:42:00,
2013-03-26 02:52:00,-1.0,-4.0,-100.00,NW,320,0.0,1.0,89,0.00,,,-99.99,,2013-03-26 08:52:00,
2013-03-26 03:02:00,-1.0,-3.0,-100.00,NW,320,0.0,1.0,90,0.00,,,-99.99,,2013-03-26 09:02:00,
2013-03-26 03:12:00,-1.0,-3.0,-100.00,NW,320,0.0,1.0,90,0.00,,,-99.99,,2013-03-26 09:12:00,
2013-03-26 03:22:00,-1.0,-3.0,-100.00,NW,320,0.0,2.0,90,0.00,,,-99.99,,2013-03-26 09:22:00,
2013-03-26 03:33:00,-1.0,-4.0,-100.00,NW,320,0.0,1.0,90,0.00,,,-99.99,,2013-03-26 09:33:00,
2013-03-26 03:43:00,-2.0,-4.0,-100.00,NW,320,0.0,1.0,90,0.00,,,-99.99,,2013-03-26 09:43:00,
2013-03-26 03:52:00,-2.0,-4.0,-100.00,NW,320,0.0,0.0,90,0.00,,,-99.99,,2013-03-26 09:52:00,
2013-03-26 04:03:00,-1.0,-3.0,-100.00,NW,325,1.0,2.0,91,0.00,,,-99.99,,2013-03-26 10:03:00,
2013-03-26 04:12:00,-1.0,-3.0,-100.00,NW,325,1.0,2.0,91,0.00,,,-99.99,,2013-03-26 10:12:00,
2013-03-26 04:22:00,-1.0,-3.0,-100.00,NW,325,0.0,1.0,91,0.00,,,-99.99,,2013-03-26 10:22:00,
2013-03-26 04:32:00,0.0,-2.0,-100.00,NW,325,0.0,0.0,91,0.00,,,-99.99,,2013-03-26 10:32:00,
2013-03-26 04:42:00,1.0,-1.0,-100.00,NW,325,1.0,1.0,91,0.00,,,-99.99,,2013-03-26 10:42:00,
2013-03-26 04:52:00,1.0,-1.0,-100.00,NW,325,0.0,1.0,91,0.00,,,-99.99,,2013-03-26 10:52:00,
2013-03-26 05:03:00,2.0,0.0,-100.00,NW,325,0.0,2.0,91,0.00,,,-99.99,,2013-03-26 11:03:00,
2013-03-26 05:12:00,2.0,1.0,-100.00,NW,325,0.0,0.0,91,0.00,,,-99.99,,2013-03-26 11:12:00,
2013-03-26 05:22:00,4.0,2.0,-100.00,NW,325,0.0,0.0,91,0.00,,,-99.99,,2013-03-26 11:22:00,
2013-03-26 05:32:00,4.0,2.0,-100.00,NNW,330,0.0,0.0,92,0.00,,,-99.99,,2013-03-26 11:32:00,
2013-03-26 05:42:00,5.0,3.0,-100.00,NNW,330,0.0,1.0,92,0.00,,,-99.99,,2013-03-26 11:42:00,
2013-03-26 05:52:00,5.0,4.0,-100.00,NNW,330,0.0,0.0,92,0.00,,,-99.99,,2013-03-26 11:52:00,
2013-03-26 06:12:00,6.0,5.0,-100.00,NNW,330,0.0,0.0,92,0.00,,,-99.99,,2013-03-26 12:12:00,
2013-03-26 06:22:00,7.0,5.0,-100.00,NNW,330,0.0,1.0,92,0.00,,,-99.99,,2013-03-26 12:22:00,
2013-03-26 06:32:00,7.0,6.0,-100.00,NNW,330,1.0,1.0,92,0.00,,,-99.99,,2013-03-26 12:32:00,
2013-03-26 06:42:00,8.0,6.0,-100.00,NNW,330,0.0,3.0,92,0.00,,,-99.99,,2013-03-26 12:42:00,
2013-03-26 06:52:00,8.0,7.0,-100.00,NNW,330,0.0,0.0,92,0.00,,,-99.99,,2013-03-26 12:52:00,
2013-03-26 07:03:00,9.0,7.0,-100.00,NNW,330,0.0,0.0,92,0.00,,,-99.99,,2013-03-26 13:03:00,
2013-03-26 07:12:00,9.0,7.0,-100.00,NNW,330,0.0,1.0,92,0.00,,,-99.99,,2013-03-26 13:12:00,
2013-03-26 07:22:00,9.0,8.0,-100.00,NNW,330,0.0,1.0,92,0.00,,,-99.99,,2013-03-26 13:22:00,
2013-03-26 07:32:00,10.0,8.0,-100.00,NNW,330,0.0,2.0,92,0.00,,,-99.99,,2013-03-26 13:32:00,
2013-03-26 07:42:00,10.0,8.0,-100.00,NNW,330,0.0,2.0,92,0.00,,,-99.99,,2013-03-26 13:42:00,
2013-03-26 07:52:00,10.0,9.0,-100.00,NNW,330,0.0,1.0,92,0.00,,,-99.99,,2013-03-26 13:52:00,
2013-03-26 08:02:00,11.0,9.0,-100.00,NNW,330,1.0,1.0,92,0.00,,,-99.99,,2013-03-26 14:02:00,
2013-03-26 08:11:00,11.0,10.0,-100.00,NNW,330,1.0,2.0,93,0.00,,,-99.99,,2013-03-26 14:11:00,
2013-03-26 08:22:00,12.0,10.0,-100.00,NNW,330,1.0,1.0,93,0.00,,,-99.99,,2013-03-26 14:22:00,
2013-03-26 08:32:00,12.0,11.0,-100.00,NNW,330,0.0,1.0,93,0.00,,,-99.99,,2013-03-26 14:32:00,
2013-03-26 08:42:00,13.0,12.0,-100.00,NNW,330,1.0,1.0,92,0.00,,,-99.99,,2013-03-26 14:42:00,
2013-03-26 08:52:00,14.0,12.0,-100.00,NNW,330,0.0,2.0,92,0.00,,,-99.99,,2013-03-26 14:52:00,
2013-03-26 09:02:00,14.0,13.0,-100.00,NNW,330,1.0,1.0,92,0.00,,,-99.99,,2013-03-26 15:02:00,
2013-03-26 09:12:00,19.0,17.0,-100.00,NW,325,1.0,2.0,91,0.00,,,-99.99,,2013-03-26 15:12:00,
2013-03-26 09:22:00,22.0,19.0,-100.00,NW,305,1.0,2.0,85,0.00,,,-99.99,,2013-03-26 15:22:00,
2013-03-26 09:33:00,27.0,21.0,-100.00,West,275,0.0,1.0,77,0.00,,,-99.99,,2013-03-26 15:33:00,
2013-03-26 09:43:00,30.0,19.0,-100.00,SW,215,1.0,1.0,63,0.00,,,-99.99,,2013-03-26 15:43:00,
2013-03-26 09:52:00,25.0,13.0,-100.00,SSW,195,1.0,4.0,58,0.00,,,-99.99,,2013-03-26 15:52:00,
2013-03-26 10:03:00,29.0,15.0,-100.00,South,180,4.0,7.0,54,0.00,,,-99.99,,2013-03-26 16:03:00,
2013-03-26 10:13:00,28.0,14.0,-100.00,South,175,4.0,7.0,53,0.00,,,-99.99,,2013-03-26 16:13:00,
2013-03-26 10:22:00,28.0,14.0,-100.00,South,175,7.0,12.0,54,0.00,,,-99.99,,2013-03-26 16:22:00,
2013-03-26 10:32:00,28.0,15.0,-100.00,South,180,9.0,13.0,56,0.00,,,-99.99,,2013-03-26 16:32:00,
2013-03-26 10:42:00,29.0,15.0,-100.00,South,185,9.0,12.0,56,0.00,,,-99.99,,2013-03-26 16:42:00,
2013-03-26 10:53:00,29.0,15.0,-100.00,South,185,9.0,12.0,55,0.00,,,-99.99,,2013-03-26 16:53:00,
2013-03-26 11:02:00,29.0,15.0,-100.00,South,185,10.0,13.0,56,0.00,,,-99.99,,2013-03-26 17:02:00,
2013-03-26 11:12:00,30.0,17.0,-100.00,South,185,7.0,12.0,56,0.00,,,-99.99,,2013-03-26 17:12:00,
2013-03-26 11:23:00,33.0,17.0,-100.00,SSE,165,9.0,15.0,51,0.00,,,-99.99,,2013-03-26 17:23:00,
2013-03-26 11:32:00,36.0,18.0,-100.00,SSE,150,2.0,13.0,47,0.00,,,-99.99,,2013-03-26 17:32:00,
2013-03-26 11:42:00,38.0,17.0,-100.00,SE,130,3.0,11.0,42,0.00,,,-99.99,,2013-03-26 17:42:00,
2013-03-26 11:52:00,38.0,17.0,-100.00,SE,125,6.0,12.0,41,0.00,,,-99.99,,2013-03-26 17:52:00,
2013-03-26 12:02:00,39.0,17.0,-100.00,ESE,120,7.0,12.0,40,0.00,,,-99.99,,2013-03-26 18:02:00,
2013-03-26 12:12:00,39.0,17.0,-100.00,SE,125,4.0,10.0,40,0.00,,,-99.99,,2013-03-26 18:12:00,
2013-03-26 12:23:00,38.0,16.0,-100.00,ESE,120,9.0,16.0,40,0.00,,,-99.99,,2013-03-26 18:23:00,
2013-03-26 12:34:00,39.0,16.0,-100.00,ESE,115,4.0,12.0,39,0.00,,,-99.99,,2013-03-26 18:34:00,
2013-03-26 12:42:00,40.0,16.0,-100.00,ESE,105,6.0,12.0,36,0.00,,,-99.99,,2013-03-26 18:42:00,
2013-03-26 12:52:00,40.0,16.0,-100.00,ESE,105,4.0,11.0,36,0.00,,,-99.99,,2013-03-26 18:52:00,
2013-03-26 13:03:00,40.0,14.0,-100.00,East,100,6.0,19.0,35,0.00,,,-99.99,,2013-03-26 19:03:00,
2013-03-26 13:12:00,39.0,14.0,-100.00,East,100,4.0,14.0,35,0.00,,,-99.99,,2013-03-26 19:12:00,
2013-03-26 13:22:00,38.0,13.0,-100.00,East,100,4.0,11.0,35,0.00,,,-99.99,,2013-03-26 19:22:00,
2013-03-26 13:32:00,36.0,11.0,-100.00,East,100,5.0,11.0,35,0.00,,,-99.99,,2013-03-26 19:32:00,
2013-03-26 13:42:00,38.0,13.0,-100.00,ESE,105,2.0,10.0,35,0.00,,,-99.99,,2013-03-26 19:42:00,
2013-03-26 13:53:00,37.0,12.0,-100.00,East,95,9.0,14.0,34,0.00,,,-99.99,,2013-03-26 19:53:00,
2013-03-26 14:02:00,38.0,12.0,-100.00,East,95,2.0,12.0,34,0.00,,,-99.99,,2013-03-26 20:02:00,
2013-03-26 14:13:00,39.0,15.0,-100.00,ESE,105,7.0,12.0,37,0.00,,,-99.99,,2013-03-26 20:13:00,
2013-03-26 14:22:00,36.0,15.0,-100.00,SE,130,7.0,16.0,42,0.00,,,-99.99,,2013-03-26 20:22:00,
2013-03-26 14:32:00,37.0,16.0,-100.00,SE,125,7.0,12.0,40,0.00,,,-99.99,,2013-03-26 20:32:00,
2013-03-26 14:42:00,38.0,15.0,-100.00,ESE,115,3.0,9.0,38,0.00,,,-99.99,,2013-03-26 20:42:00,
2013-03-26 14:52:00,38.0,15.0,-100.00,ESE,110,11.0,18.0,37,0.00,,,-99.99,,2013-03-26 20:52:00,
2013-03-26 15:02:00,38.0,14.0,-100.00,ESE,110,12.0,22.0,37,0.00,,,-99.99,,2013-03-26 21:02:00,
2013-03-26 15:12:00,39.0,14.0,-100.00,ESE,105,4.0,15.0,35,0.00,,,-99.99,,2013-03-26 21:12:00,
2013-03-26 15:22:00,39.0,13.0,-100.00,East,100,4.0,19.0,34,0.00,,,-99.99,,2013-03-26 21:22:00,
2013-03-26 15:33:00,40.0,12.0,-100.00,East,85,4.0,14.0,31,0.00,,,-99.99,,2013-03-26 21:33:00,
2013-03-26 15:43:00,40.0,11.0,-100.00,East,80,9.0,15.0,29,0.00,,,-99.99,,2013-03-26 21:43:00,
2013-03-26 15:52:00,38.0,10.0,-100.00,East,80,6.0,11.0,29,0.00,,,-99.99,,2013-03-26 21:52:00,
2013-03-26 16:02:00,38.0,9.0,-100.00,East,80,3.0,11.0,30,0.00,,,-99.99,,2013-03-26 22:02:00,
2013-03-26 16:12:00,36.0,8.0,-100.00,East,85,5.0,12.0,30,0.00,,,-99.99,,2013-03-26 22:12:00,
2013-03-26 16:22:00,35.0,8.0,-100.00,East,85,4.0,12.0,31,0.00,,,-99.99,,2013-03-26 22:22:00,
2013-03-26 16:33:00,35.0,8.0,-100.00,East,90,4.0,10.0,32,0.00,,,-99.99,,2013-03-26 22:33:00,
2013-03-26 16:42:00,34.0,11.0,-100.00,ESE,110,7.0,12.0,37,0.00,,,-99.99,,2013-03-26 22:42:00,
2013-03-26 16:52:00,35.0,13.0,-100.00,ESE,120,6.0,16.0,40,0.00,,,-99.99,,2013-03-26 22:52:00,
2013-03-26 17:01:00,33.0,13.0,-100.00,SE,140,12.0,17.0,44,0.00,,,-99.99,,2013-03-26 23:01:00,
2013-03-26 17:10:00,31.0,14.0,-100.00,SSE,150,8.0,17.0,47,0.00,,,-99.99,,2013-03-26 23:10:00,
2013-03-26 17:22:00,31.0,15.0,-100.00,SSE,155,6.0,11.0,49,0.00,,,-99.99,,2013-03-26 23:22:00,
2013-03-26 17:32:00,31.0,15.0,-100.00,SSE,160,7.0,11.0,50,0.00,,,-99.99,,2013-03-26 23:32:00,
2013-03-26 17:42:00,32.0,16.0,-100.00,SSE,160,2.0,7.0,50,0.00,,,-99.99,,2013-03-26 23:42:00,
2013-03-26 17:52:00,33.0,15.0,-100.00,SE,145,6.0,10.0,46,0.00,,,-99.99,,2013-03-26 23:52:00,
2013-03-26 18:02:00,33.0,13.0,-100.00,SE,135,4.0,12.0,43,0.00,,,-99.99,,2013-03-27 00:02:00,
2013-03-26 18:12:00,32.0,11.0,-100.00,SE,125,11.0,14.0,40,0.00,,,-99.99,,2013-03-27 00:12:00,
2013-03-26 18:22:00,33.0,11.0,-100.00,ESE,120,5.0,12.0,40,0.00,,,-99.99,,2013-03-27 00:22:00,
2013-03-26 18:32:00,32.0,11.0,-100.00,ESE,120,7.0,15.0,40,0.00,,,-99.99,,2013-03-27 00:32:00,
2013-03-26 18:42:00,32.0,11.0,-100.00,SE,125,7.0,14.0,40,0.00,,,-99.99,,2013-03-27 00:42:00,
2013-03-26 18:52:00,31.0,11.0,-100.00,SE,135,8.0,14.0,43,0.00,,,-99.99,,2013-03-27 00:52:00,
2013-03-26 19:02:00,30.0,11.0,-100.00,SE,135,6.0,12.0,43,0.00,,,-99.99,,2013-03-27 01:02:00,
2013-03-26 19:12:00,29.0,11.0,-100.00,SE,140,7.0,12.0,44,0.00,,,-99.99,,2013-03-27 01:12:00,
2013-03-26 19:23:00,29.0,10.0,-100.00,SE,140,7.0,10.0,45,0.00,,,-99.99,,2013-03-27 01:23:00,
2013-03-26 19:33:00,28.0,11.0,-100.00,SSE,150,4.0,6.0,47,0.00,,,-99.99,,2013-03-27 01:33:00,
2013-03-26 19:42:00,28.0,11.0,-100.00,SSE,155,4.0,9.0,48,0.00,,,-99.99,,2013-03-27 01:42:00,
2013-03-26 19:52:00,28.0,11.0,-100.00,SSE,160,6.0,12.0,49,0.00,,,-99.99,,2013-03-27 01:52:00,
2013-03-26 20:03:00,27.0,12.0,-100.00,South,170,7.0,11.0,52,0.00,,,-99.99,,2013-03-27 02:03:00,
2013-03-26 20:12:00,27.0,12.0,-100.00,South,175,4.0,8.0,53,0.00,,,-99.99,,2013-03-27 02:12:00,
2013-03-26 20:22:00,26.0,12.0,-100.00,South,180,3.0,5.0,54,0.00,,,-99.99,,2013-03-27 02:22:00,
2013-03-26 20:32:00,26.0,13.0,-100.00,South,185,3.0,5.0,56,0.00,,,-99.99,,2013-03-27 02:32:00,
2013-03-26 20:42:00,26.0,14.0,-100.00,SSW,195,4.0,9.0,58,0.00,,,-99.99,,2013-03-27 02:42:00,
2013-03-26 20:52:00,26.0,15.0,-100.00,SSW,205,8.0,10.0,61,0.00,,,-99.99,,2013-03-27 02:52:00,
2013-03-26 21:02:00,26.0,16.0,-100.00,SW,220,7.0,11.0,64,0.00,,,-99.99,,2013-03-27 03:02:00,
2013-03-26 21:12:00,26.0,16.0,-100.00,SW,230,4.0,12.0,67,0.00,,,-99.99,,2013-03-27 03:12:00,
2013-03-26 21:22:00,25.0,16.0,-100.00,SW,235,1.0,5.0,68,0.00,,,-99.99,,2013-03-27 03:22:00,
2013-03-26 21:33:00,25.0,17.0,-100.00,WSW,240,1.0,5.0,70,0.00,,,-99.99,,2013-03-27 03:33:00,
2013-03-26 21:42:00,25.0,17.0,-100.00,WSW,245,2.0,4.0,71,0.00,,,-99.99,,2013-03-27 03:42:00,
2013-03-26 21:52:00,25.0,17.0,-100.00,WSW,250,0.0,3.0,72,0.00,,,-99.99,,2013-03-27 03:52:00,
2013-03-26 22:03:00,24.0,17.0,-100.00,WSW,255,0.0,3.0,74,0.00,,,-99.99,,2013-03-27 04:03:00,
2013-03-26 22:13:00,24.0,17.0,-100.00,West,265,0.0,0.0,76,0.00,,,-99.99,,2013-03-27 04:13:00,
2013-03-26 22:23:00,24.0,19.0,-100.00,West,275,1.0,2.0,78,0.00,,,-99.99,,2013-03-27 04:23:00,
2013-03-26 22:33:00,24.0,19.0,-100.00,West,280,0.0,2.0,79,0.00,,,-99.99,,2013-03-27 04:33:00,
2013-03-26 22:42:00,25.0,20.0,-100.00,WNW,285,0.0,1.0,81,0.00,,,-99.99,,2013-03-27 04:42:00,
2013-03-26 22:52:00,25.0,20.0,-100.00,WNW,290,1.0,2.0,83,0.00,,,-99.99,,2013-03-27 04:52:00,
2013-03-26 23:02:00,24.0,21.0,-100.00,WNW,300,1.0,1.0,85,0.00,,,-99.99,,2013-03-27 05:02:00,
2013-03-26 23:12:00,24.0,21.0,-100.00,NW,310,0.0,1.0,87,0.00,,,-99.99,,2013-03-27 05:12:00,
2013-03-26 23:23:00,24.0,21.0,-100.00,NW,315,2.0,3.0,89,0.00,,,-99.99,,2013-03-27 05:23:00,
2013-03-26 23:33:00,24.0,22.0,-100.00,NW,320,4.0,4.0,91,0.00,,,-99.99,,2013-03-27 05:33:00,
2013-03-26 23:42:00,24.0,22.0,-100.00,NW,325,4.0,5.0,91,0.00,,,-99.99,,2013-03-27 05:42:00,
2013-03-26 23:52:00,24.0,22.0,-100.00,NNW,330,3.0,5.0,92,0.00,,,-99.99,,2013-03-27 05:52:00,